Time;durP1;ratioP1;P1;durP2;ratioP2;P2;SDS_P1;SDS_P2;PMS_P1;PMS_P2;Temp;Humidity;BMP_temperature;BMP_pressure;BME280_temperature;BME280_humidity;BME280_pressure;Samples;Min_cycle;Max_cycle;Signal;HPM_P1;HPM_P2
2022/04/08 00:01:07;;;;;;;5.43;0.60;;;;;;;8.15;43.30;98464.84;10362122;28;20494;-82
2022/04/08 00:06:09;;;;;;;4.83;0.83;;;;;;;8.65;42.83;98457.97;10348713;28;20226;-82
2022/04/08 00:11:11;;;;;;;4.37;1.50;;;;;;;7.47;45.33;98479.72;10352003;28;20210;-82
2022/04/08 00:16:13;;;;;;;4.67;1.30;;;;;;;8.00;44.09;98471.44;10319464;28;20264;-82
2022/04/08 00:21:16;;;;;;;5.03;0.83;;;;;;;7.58;44.67;98489.97;10335598;28;20297;-83
2022/04/08 00:26:18;;;;;;;4.67;1.10;;;;;;;7.44;44.79;98488.88;10335340;28;20217;-82
2022/04/08 00:31:20;;;;;;;4.47;1.10;;;;;;;8.37;42.76;98497.78;10335493;28;20194;-82
2022/04/08 00:36:22;;;;;;;7.43;2.00;;;;;;;8.07;43.08;98508.94;10350174;28;20206;-82
2022/04/08 00:41:25;;;;;;;6.10;1.67;;;;;;;8.05;43.23;98531.03;10351463;28;20611;-83
2022/04/08 00:46:27;;;;;;;3.83;1.30;;;;;;;7.77;43.26;98524.88;10335087;28;20280;-82
2022/04/08 00:51:30;;;;;;;4.70;1.17;;;;;;;8.75;41.55;98543.88;10351008;28;20274;-82
2022/04/08 00:56:33;;;;;;;3.37;0.97;;;;;;;7.31;43.82;98554.88;10354976;28;20206;-82
2022/04/08 01:01:35;;;;;;;3.57;0.80;;;;;;;7.97;42.80;98568.69;10343642;28;20217;-82
2022/04/08 01:06:38;;;;;;;3.30;0.70;;;;;;;8.21;42.27;98562.69;10358594;28;20606;-82
2022/04/08 01:11:41;;;;;;;4.73;0.70;;;;;;;7.91;42.95;98576.59;10342395;28;20202;-82
2022/04/08 01:16:43;;;;;;;4.00;0.80;;;;;;;8.32;41.53;98582.56;10326194;28;20206;-82
2022/04/08 01:21:46;;;;;;;5.47;0.60;;;;;;;7.45;43.31;98586.91;10364028;28;20225;-83
2022/04/08 01:26:48;;;;;;;6.80;0.70;;;;;;;8.18;42.15;98596.38;10357233;28;20225;-83
2022/04/08 01:31:50;;;;;;;6.50;0.70;;;;;;;8.03;41.69;98605.75;10357923;28;20210;-85
2022/04/08 01:36:53;;;;;;;4.33;0.70;;;;;;;7.99;40.80;98616.16;10333468;28;20210;-82
2022/04/08 01:41:55;;;;;;;3.57;0.60;;;;;;;9.04;39.10;98622.00;10341764;28;20222;-84
2022/04/08 01:46:57;;;;;;;4.23;0.90;;;;;;;8.25;41.07;98630.31;10344501;28;20241;-85
2022/04/08 01:51:59;;;;;;;7.00;0.87;;;;;;;8.08;41.65;98642.88;10357111;28;20206;-82
2022/04/08 01:57:02;;;;;;;7.50;1.50;;;;;;;8.91;39.80;98648.78;10343571;28;20201;-83
2022/04/08 02:02:05;;;;;;;10.50;1.60;;;;;;;8.50;41.06;98642.84;10370122;28;20198;-83
2022/04/08 02:07:07;;;;;;;8.87;1.50;;;;;;;7.61;43.20;98668.41;10339116;28;20218;-82
2022/04/08 02:12:09;;;;;;;5.20;1.20;;;;;;;7.36;43.58;98667.88;10305056;28;20206;-82
2022/04/08 02:17:12;;;;;;;6.03;1.13;;;;;;;6.37;43.99;98666.19;10339494;28;20222;-82
2022/04/08 02:22:14;;;;;;;5.70;0.70;;;;;;;7.47;40.21;98680.16;10339313;28;20249;-83
2022/04/08 02:27:17;;;;;;;6.93;1.00;;;;;;;8.04;39.79;98680.56;10355713;28;20631;-82
2022/04/08 02:32:19;;;;;;;5.07;1.27;;;;;;;8.26;39.47;98679.81;10338039;28;20194;-82
2022/04/08 02:37:21;;;;;;;4.43;0.90;;;;;;;7.71;40.27;98700.75;10339208;28;20217;-83
2022/04/08 02:42:23;;;;;;;7.60;0.83;;;;;;;7.68;39.77;98695.84;10339997;28;20234;-83
2022/04/08 02:47:25;;;;;;;7.43;1.73;;;;;;;7.36;40.58;98712.03;10354844;28;20522;-82
2022/04/08 02:52:28;;;;;;;7.10;1.00;;;;;;;7.10;40.76;98733.09;10354797;28;20209;-82
2022/04/08 02:57:30;;;;;;;5.63;0.70;;;;;;;7.95;39.15;98728.63;10331082;28;20491;-83
2022/04/08 03:02:32;;;;;;;6.57;1.00;;;;;;;8.04;38.80;98734.03;10338089;28;20213;-83
2022/04/08 03:07:35;;;;;;;5.83;0.80;;;;;;;8.06;38.89;98751.34;10345926;28;20225;-82
2022/04/08 03:12:37;;;;;;;8.87;1.43;;;;;;;8.16;38.80;98753.56;10337549;28;20229;-82
2022/04/08 03:17:40;;;;;;;9.33;1.10;;;;;;;8.13;38.23;98748.72;10336984;28;20222;-82
2022/04/08 03:22:42;;;;;;;6.57;1.03;;;;;;;7.33;39.39;98755.72;10337494;28;20280;-82
2022/04/08 03:27:44;;;;;;;10.20;1.60;;;;;;;8.14;38.61;98753.16;10352942;28;20587;-82
2022/04/08 03:32:48;;;;;;;6.67;1.30;;;;;;;7.56;39.21;98750.25;10353644;28;20495;-83
2022/04/08 03:37:50;;;;;;;7.57;1.60;;;;;;;7.08;39.97;98749.50;10353383;28;20646;-83
2022/04/08 03:42:52;;;;;;;6.93;1.43;;;;;;;7.58;38.35;98753.50;10352964;28;20195;-82
2022/04/08 03:47:54;;;;;;;6.37;1.67;;;;;;;8.16;37.35;98756.38;10352225;28;20300;-83
2022/04/08 03:52:56;;;;;;;7.23;1.17;;;;;;;8.17;37.86;98769.28;10352718;28;20224;-82
2022/04/08 03:57:58;;;;;;;6.60;1.37;;;;;;;7.99;38.92;98773.75;10335195;28;20595;-82
2022/04/08 04:03:01;;;;;;;9.67;2.17;;;;;;;7.84;38.85;98784.69;10335114;28;20205;-83
2022/04/08 04:08:03;;;;;;;8.50;2.03;;;;;;;8.89;37.18;98792.06;10352055;28;20225;-82
2022/04/08 04:13:05;;;;;;;6.73;1.60;;;;;;;8.60;38.14;98807.59;10335556;28;20269;-83
2022/04/08 04:18:08;;;;;;;7.40;1.77;;;;;;;9.32;36.98;98808.53;10352815;28;20217;-83
2022/04/08 04:23:10;;;;;;;5.80;1.73;;;;;;;8.36;38.87;98817.16;10352003;28;20324;-84
2022/04/08 04:28:13;;;;;;;8.27;2.33;;;;;;;8.24;39.03;98826.56;10347951;28;20226;-83
2022/04/08 04:33:15;;;;;;;10.23;2.20;;;;;;;8.63;37.54;98821.75;10342004;28;20253;-84
2022/04/08 04:38:17;;;;;;;6.63;1.57;;;;;;;8.62;38.21;98820.13;10338923;28;20213;-83
2022/04/08 04:43:20;;;;;;;9.00;1.47;;;;;;;8.10;38.42;98825.44;10343384;28;20264;-84
2022/04/08 04:48:22;;;;;;;11.87;2.33;;;;;;;8.74;38.35;98832.44;10343372;28;20507;-83
2022/04/08 04:53:25;;;;;;;11.80;1.50;;;;;;;8.38;37.81;98831.69;10342911;28;20202;-81
2022/04/08 04:58:27;;;;;;;6.27;1.60;;;;;;;7.49;39.56;98831.63;10358305;28;20246;-82
2022/04/08 05:03:30;;;;;;;5.87;1.37;;;;;;;7.76;39.31;98841.94;10342816;28;20210;-84
2022/04/08 05:08:32;;;;;;;8.70;1.40;;;;;;;7.80;39.25;98854.09;10321520;28;20296;-83
2022/04/08 05:13:34;;;;;;;8.50;1.53;;;;;;;8.10;38.13;98843.16;10325566;28;20591;-82
2022/04/08 05:18:37;;;;;;;7.07;1.10;;;;;;;8.20;38.28;98855.81;10340997;28;20213;-84
2022/04/08 05:23:39;;;;;;;6.60;1.30;;;;;;;7.90;38.33;98850.72;10325581;28;20272;-83
2022/04/08 05:28:42;;;;;;;4.50;1.13;;;;;;;7.28;40.08;98856.38;10342274;28;20222;-83
2022/04/08 05:33:44;;;;;;;9.67;2.20;;;;;;;7.95;39.53;98858.88;10328789;28;20264;-83
2022/04/08 05:38:46;;;;;;;9.30;2.20;;;;;;;7.82;39.81;98851.75;10362251;28;20206;-83
2022/04/08 05:43:48;;;;;;;9.73;2.40;;;;;;;9.36;36.62;98853.72;10355662;28;20214;-83
2022/04/08 05:48:51;;;;;;;7.00;1.87;;;;;;;8.70;38.02;98848.44;10369634;28;20232;-83
2022/04/08 05:53:53;;;;;;;7.40;1.93;;;;;;;7.71;39.03;98858.28;10340682;28;20229;-83
2022/04/08 05:58:57;;;;;;;4.93;1.50;;;;;;;7.63;39.56;98873.34;10346758;28;20209;-84
2022/04/08 06:04:00;;;;;;;7.27;2.57;;;;;;;6.89;40.98;98873.00;10336602;28;20496;-83
2022/04/08 06:09:02;;;;;;;5.93;2.23;;;;;;;7.35;40.11;98863.03;10327481;28;20225;-83
2022/04/08 06:14:04;;;;;;;9.60;3.00;;;;;;;7.46;40.03;98866.09;10345892;28;20249;-83
2022/04/08 06:19:11;;;;;;;9.90;2.30;;;;;;;8.43;38.19;98850.28;10364663;28;20218;-83
2022/04/08 06:24:14;;;;;;;7.27;2.57;;;;;;;8.36;38.50;98850.94;10339735;28;20238;-85
2022/04/08 06:29:16;;;;;;;7.40;2.63;;;;;;;8.40;38.22;98845.41;10338855;28;20507;-83
2022/04/08 06:34:20;;;;;;;6.17;2.40;;;;;;;8.17;39.83;98848.09;10360438;28;20256;-84
2022/04/08 06:39:22;;;;;;;8.60;2.40;;;;;;;8.39;39.02;98853.03;10361859;28;20245;-85
2022/04/08 06:44:24;;;;;;;9.97;2.43;;;;;;;9.38;36.44;98840.88;10355603;28;20261;-83
2022/04/08 06:49:26;;;;;;;6.63;2.23;;;;;;;9.29;37.03;98848.78;10357710;28;20646;-83
2022/04/08 06:54:29;;;;;;;7.17;2.70;;;;;;;9.14;36.81;98840.44;10368114;28;20275;-84
2022/04/08 06:59:31;;;;;;;9.30;2.50;;;;;;;9.19;36.78;98857.03;10342630;28;20261;-86
2022/04/08 07:04:37;;;;;;;6.83;2.67;;;;;;;8.74;38.25;98852.16;10347372;28;20502;-83
2022/04/08 07:09:39;;;;;;;7.47;3.37;;;;;;;10.15;35.21;98844.53;10338789;28;20234;-84
2022/04/08 07:14:42;;;;;;;13.33;3.10;;;;;;;9.29;36.58;98842.34;10346952;28;20250;-81
2022/04/08 07:19:44;;;;;;;7.43;3.00;;;;;;;8.95;36.26;98838.47;10344397;28;20280;-84
2022/04/08 07:24:46;;;;;;;7.03;3.57;;;;;;;8.82;37.03;98840.66;10353334;28;20280;-85
2022/04/08 07:29:50;;;;;;;7.50;2.80;;;;;;;9.17;35.29;98829.25;10353437;28;20476;-84
2022/04/08 07:34:52;;;;;;;7.77;4.40;;;;;;;10.44;34.19;98829.59;10350441;28;20206;-82
2022/04/08 07:39:54;;;;;;;6.77;3.50;;;;;;;9.83;34.94;98832.78;10334181;28;20214;-81
2022/04/08 07:44:56;;;;;;;5.67;3.50;;;;;;;9.25;34.73;98836.63;10334488;28;20206;-82
2022/04/08 07:50:17;;;;;;;6.90;3.60;;;;;;;9.75;33.58;98837.47;10337251;28;20205;-83
2022/04/08 07:55:20;;;;;;;8.63;4.07;;;;;;;9.75;34.01;98837.47;10300595;28;20210;-83
2022/04/08 08:00:27;;;;;;;8.37;4.63;;;;;;;9.27;34.17;98833.44;10332756;28;20673;-84
2022/04/08 08:05:31;;;;;;;6.53;4.03;;;;;;;9.44;33.98;98832.13;10350876;28;20559;-84
2022/04/08 08:10:38;;;;;;;6.77;4.10;;;;;;;10.11;33.91;98826.69;10335257;28;20206;-84
2022/04/08 08:15:43;;;;;;;5.17;3.97;;;;;;;10.50;31.73;98833.72;10351764;28;20226;-86
2022/04/08 08:20:47;;;;;;;5.03;4.47;;;;;;;10.05;33.60;98832.69;10319617;28;20697;-83
2022/04/08 08:25:49;;;;;;;5.47;4.20;;;;;;;9.66;33.85;98836.94;10334459;28;20515;-84
2022/04/08 08:30:59;;;;;;;7.93;4.47;;;;;;;10.17;32.18;98828.00;10332931;28;20261;-82
2022/04/08 08:36:02;;;;;;;7.77;4.97;;;;;;;10.21;33.23;98826.06;10351371;28;20202;-82
2022/04/08 08:41:07;;;;;;;5.67;3.97;;;;;;;11.02;31.39;98827.06;10354728;28;20261;-86
2022/04/08 08:46:09;;;;;;;5.83;4.00;;;;;;;9.47;31.93;98818.03;10335964;28;20217;-82
2022/04/08 08:51:13;;;;;;;4.73;3.93;;;;;;;9.76;32.08;98816.53;10349466;28;20237;-83
2022/04/08 08:56:15;;;;;;;3.53;3.10;;;;;;;9.68;31.99;98820.44;10333110;28;20499;-84
2022/04/08 09:01:17;;;;;;;5.30;3.30;;;;;;;10.53;29.92;98818.00;10347717;28;20214;-83
2022/04/08 09:06:21;;;;;;;5.73;4.07;;;;;;;10.24;31.11;98809.13;10344522;28;20270;-82
2022/04/08 09:11:27;;;;;;;4.33;3.90;;;;;;;10.87;30.44;98801.88;10335122;28;20194;-83
2022/04/08 09:16:30;;;;;;;4.87;3.53;;;;;;;10.28;31.04;98797.91;10351469;28;20257;-83
2022/04/08 09:21:32;;;;;;;3.97;3.10;;;;;;;10.99;29.21;98774.13;10346480;28;20285;-83
2022/04/08 09:26:36;;;;;;;4.27;2.77;;;;;;;11.42;28.60;98755.50;10338415;28;20226;-82
2022/04/08 09:31:38;;;;;;;4.10;2.90;;;;;;;10.59;29.56;98748.66;10359497;28;20202;-83
2022/04/08 09:36:40;;;;;;;4.53;3.13;;;;;;;11.05;29.97;98737.81;10325431;28;20194;-83
2022/04/08 09:41:45;;;;;;;3.73;3.30;;;;;;;9.25;32.20;98732.28;10340822;28;20222;-83
2022/04/08 09:46:47;;;;;;;4.60;3.30;;;;;;;9.70;31.35;98727.75;10347130;28;20312;-82
2022/04/08 09:51:51;;;;;;;6.13;3.20;;;;;;;10.72;31.04;98716.91;10337063;28;20689;-83
2022/04/08 09:56:57;;;;;;;5.67;3.00;;;;;;;10.50;29.95;98714.25;10322734;28;20206;-83
2022/04/08 10:02:07;;;;;;;4.20;2.60;;;;;;;10.50;30.48;98717.88;10343707;28;20206;-83
2022/04/08 10:07:09;;;;;;;2.80;2.60;;;;;;;10.86;29.46;98709.78;10331286;28;20611;-84
2022/04/08 10:13:02;;;;;;;4.97;2.43;;;;;;;11.62;27.29;98695.81;10339691;28;20221;-83
2022/04/08 10:18:05;;;;;;;3.83;2.47;;;;;;;10.45;29.86;98704.09;10313893;28;20234;-83
2022/04/08 10:23:12;;;;;;;3.93;2.00;;;;;;;10.74;29.76;98697.53;10351731;28;20254;-84
2022/04/08 10:28:14;;;;;;;4.00;1.50;;;;;;;11.63;26.62;98686.13;10337233;28;20273;-84
2022/04/08 10:33:28;;;;;;;3.73;1.83;;;;;;;11.06;26.93;98692.16;10321653;28;20543;-84
2022/04/08 10:38:37;;;;;;;2.77;1.67;;;;;;;11.11;28.07;98685.34;10336878;28;20202;-84
2022/04/08 10:43:44;;;;;;;3.10;1.20;;;;;;;9.80;28.66;98698.88;10352559;28;20205;-84
2022/04/08 10:48:54;;;;;;;2.40;1.00;;;;;;;11.18;27.08;98699.53;10353309;28;20253;-84
2022/04/08 10:54:04;;;;;;;1.53;0.90;;;;;;;9.49;28.69;98702.00;10348329;28;20504;-84
2022/04/08 10:59:07;;;;;;;2.33;1.00;;;;;;;9.97;27.39;98698.25;10320981;28;20500;-83
2022/04/08 11:04:09;;;;;;;2.87;0.57;;;;;;;9.90;25.69;98697.38;10336992;28;20281;-84
2022/04/08 11:09:14;;;;;;;1.97;0.60;;;;;;;10.64;24.95;98674.81;10335685;28;20225;-85
2022/04/08 11:14:16;;;;;;;2.00;0.70;;;;;;;10.47;25.57;98670.66;10343797;28;20238;-85
2022/04/08 11:19:20;;;;;;;2.90;0.60;;;;;;;9.97;26.58;98675.69;10320972;28;20229;-84
2022/04/08 11:24:32;;;;;;;1.50;0.50;;;;;;;10.65;26.32;98670.78;10335849;28;20206;-83
2022/04/08 11:29:36;;;;;;;1.40;0.53;;;;;;;9.87;28.04;98661.44;10345931;28;20225;-84
2022/04/08 11:34:39;;;;;;;2.07;0.83;;;;;;;11.25;26.14;98639.38;10343639;28;20482;-83
2022/04/08 11:39:41;;;;;;;2.00;0.70;;;;;;;10.70;27.10;98633.72;10336123;28;20205;-83
2022/04/08 11:44:44;;;;;;;1.90;0.77;;;;;;;10.05;27.97;98629.41;10335212;28;20269;-83
2022/04/08 11:49:46;;;;;;;1.70;1.07;;;;;;;10.55;28.46;98632.75;10335984;28;20774;-83
2022/04/08 11:54:48;;;;;;;7.57;1.70;;;;;;;10.43;27.21;98627.38;10332863;28;20543;-83
2022/04/08 12:00:11;;;;;;;3.43;0.60;;;;;;;11.59;26.44;98612.50;10334486;28;20587;-83
2022/04/08 12:05:19;;;;;;;2.30;1.00;;;;;;;10.31;27.47;98616.38;10348414;28;20237;-82
2022/04/08 12:10:27;;;;;;;3.63;0.90;;;;;;;11.60;26.65;98602.00;10347791;28;20619;-83
2022/04/08 12:15:29;;;;;;;3.17;1.27;;;;;;;11.35;28.02;98591.38;10349056;28;20249;-83
2022/04/08 12:20:31;;;;;;;2.53;0.60;;;;;;;12.20;24.92;98588.06;10318016;28;20705;-83
2022/04/08 12:25:35;;;;;;;1.37;0.60;;;;;;;11.59;24.69;98577.72;10336036;28;20496;-83
2022/04/08 12:30:38;;;;;;;2.73;0.80;;;;;;;12.14;23.58;98556.50;10349542;28;20522;-82
2022/04/08 12:35:41;;;;;;;2.37;0.80;;;;;;;10.57;27.26;98556.09;10341864;28;20670;-85
2022/04/08 12:40:43;;;;;;;1.70;0.80;;;;;;;11.10;24.79;98547.97;10312507;28;20206;-86
2022/04/08 12:45:45;;;;;;;2.20;0.87;;;;;;;10.94;25.91;98553.94;10332727;28;20209;-85
2022/04/08 12:50:47;;;;;;;2.53;1.10;;;;;;;12.12;24.71;98555.28;10343680;28;20249;-84
2022/04/08 12:55:50;;;;;;;2.73;0.73;;;;;;;12.17;25.68;98558.50;10345439;28;20507;-86
2022/04/08 13:00:54;;;;;;;1.73;1.03;;;;;;;10.91;26.37;98568.03;10351962;28;20260;-85
2022/04/08 13:05:56;;;;;;;5.33;1.10;;;;;;;10.96;26.65;98551.53;10347458;28;20233;-84
2022/04/08 13:10:59;;;;;;;1.97;1.13;;;;;;;12.24;26.50;98554.06;10339412;28;20253;-84
2022/04/08 13:16:01;;;;;;;2.87;1.13;;;;;;;12.68;25.15;98553.69;10353351;28;20311;-84
2022/04/08 13:21:04;;;;;;;1.33;0.60;;;;;;;11.39;25.94;98555.41;10336650;28;20226;-84
2022/04/08 13:26:06;;;;;;;1.17;0.80;;;;;;;11.31;24.48;98547.28;10361404;28;20238;-85
2022/04/08 13:31:08;;;;;;;1.27;0.70;;;;;;;11.65;24.70;98542.97;10362208;28;20309;-84
2022/04/08 13:36:11;;;;;;;2.67;0.60;;;;;;;12.40;23.85;98534.66;10359877;28;20268;-84
2022/04/08 13:41:13;;;;;;;2.93;0.80;;;;;;;11.62;24.09;98540.16;10345187;28;20194;-83
2022/04/08 13:46:15;;;;;;;4.63;0.93;;;;;;;10.79;24.09;98538.88;10358027;28;20205;-84
2022/04/08 13:51:18;;;;;;;1.83;0.63;;;;;;;11.19;23.69;98537.09;10354992;28;20249;-84
2022/04/08 13:56:20;;;;;;;1.33;0.57;;;;;;;11.58;24.46;98534.47;10355942;28;20275;-85
2022/04/08 14:01:23;;;;;;;2.00;0.67;;;;;;;11.53;23.49;98540.50;10335134;28;20201;-85
2022/04/08 14:06:26;;;;;;;4.77;0.93;;;;;;;11.01;25.49;98539.81;10345940;28;20290;-86
2022/04/08 14:11:28;;;;;;;4.33;1.13;;;;;;;11.40;25.12;98540.06;10341630;28;20221;-84
2022/04/08 14:16:30;;;;;;;1.60;0.80;;;;;;;11.98;24.73;98529.72;10331405;28;20233;-84
2022/04/08 14:21:33;;;;;;;3.40;1.37;;;;;;;11.62;24.72;98537.31;10336349;28;20249;-86
2022/04/08 14:26:36;;;;;;;3.07;1.03;;;;;;;12.33;25.33;98534.63;10346004;28;20205;-85
2022/04/08 14:31:38;;;;;;;3.87;1.20;;;;;;;9.42;28.38;98552.44;10347606;28;20209;-85
2022/04/08 14:36:40;;;;;;;1.63;1.10;;;;;;;11.38;26.64;98539.66;10344912;28;20224;-85
2022/04/08 14:41:44;;;;;;;3.97;1.40;;;;;;;11.36;24.25;98522.28;10346935;28;20202;-85
2022/04/08 14:46:46;;;;;;;3.70;1.77;;;;;;;11.60;27.04;98529.22;10342672;28;20202;-85
2022/04/08 14:51:48;;;;;;;2.83;1.27;;;;;;;11.41;25.50;98530.34;10342285;28;20264;-86
2022/04/08 14:56:52;;;;;;;2.67;1.30;;;;;;;10.87;26.73;98530.47;10341069;28;20233;-84
2022/04/08 15:01:55;;;;;;;3.40;1.40;;;;;;;11.54;24.37;98530.00;10324086;28;20642;-84
2022/04/08 15:06:57;;;;;;;4.67;1.33;;;;;;;9.90;25.96;98522.38;10322168;28;20230;-84
2022/04/08 15:12:00;;;;;;;4.90;1.67;;;;;;;9.57;25.89;98542.97;10327763;28;20233;-85
2022/04/08 15:17:02;;;;;;;2.17;1.03;;;;;;;9.87;24.63;98540.88;10343993;28;20296;-86
2022/04/08 15:22:05;;;;;;;4.50;1.07;;;;;;;11.38;23.52;98522.69;10327090;28;20280;-84
2022/04/08 15:27:28;;;;;;;2.40;0.80;;;;;;;10.87;24.10;98530.47;10324252;28;20292;-85
2022/04/08 15:32:30;;;;;;;2.70;0.60;;;;;;;11.36;23.16;98527.94;10335239;28;20250;-84
2022/04/08 15:37:32;;;;;;;1.90;0.70;;;;;;;13.06;21.43;98520.84;10333141;28;20225;-83
2022/04/08 15:42:37;;;;;;;2.27;0.80;;;;;;;12.87;22.01;98522.09;10326753;28;20222;-84
2022/04/08 15:47:45;;;;;;;4.30;0.93;;;;;;;11.45;23.94;98533.22;10323579;28;20705;-83
2022/04/08 15:52:48;;;;;;;4.17;1.23;;;;;;;10.98;24.66;98528.50;10319822;28;20312;-84
2022/04/08 15:57:51;;;;;;;3.57;1.13;;;;;;;10.90;26.31;98552.28;10323088;28;20316;-83
2022/04/08 16:02:56;;;;;;;3.80;1.80;;;;;;;10.52;26.01;98564.91;10331734;28;20559;-83
2022/04/08 16:07:58;;;;;;;2.87;1.10;;;;;;;11.32;25.02;98561.03;10356188;28;20256;-86
2022/04/08 16:13:01;;;;;;;2.07;0.80;;;;;;;9.73;26.46;98583.88;10370572;28;20232;-82
2022/04/08 16:18:03;;;;;;;3.00;0.97;;;;;;;12.05;23.73;98567.34;10332490;28;20241;-82
2022/04/08 16:23:06;;;;;;;3.47;0.80;;;;;;;11.87;23.57;98572.19;10316195;28;20264;-83
2022/04/08 16:28:08;;;;;;;2.60;1.03;;;;;;;12.11;25.15;98567.81;10317366;28;20308;-85
2022/04/08 16:33:11;;;;;;;4.97;1.27;;;;;;;12.17;24.32;98558.50;10335162;28;20233;-84
2022/04/08 16:38:13;;;;;;;2.80;1.10;;;;;;;11.48;25.48;98572.84;10335349;28;20838;-84
2022/04/08 16:43:16;;;;;;;3.90;1.00;;;;;;;10.69;26.40;98576.38;10331635;28;20256;-84
2022/04/08 16:48:18;;;;;;;4.17;1.30;;;;;;;11.24;25.23;98579.16;10346346;28;20649;-84
2022/04/08 16:53:20;;;;;;;3.57;1.00;;;;;;;10.81;26.23;98568.78;10353573;28;20264;-85
2022/04/08 16:58:25;;;;;;;2.67;1.50;;;;;;;10.60;25.86;98575.91;10323307;28;20221;-85
2022/04/08 17:03:28;;;;;;;5.33;1.60;;;;;;;11.49;26.54;98574.47;10348648;28;20225;-86
2022/04/08 17:08:33;;;;;;;1.63;1.10;;;;;;;10.44;26.81;98576.13;10351891;28;20638;-84
2022/04/08 17:13:41;;;;;;;5.90;2.60;;;;;;;10.08;27.41;98580.66;10323988;28;20229;-84
2022/04/08 17:18:59;;;;;;;5.17;1.63;;;;;;;9.02;28.99;98594.19;10336540;28;20596;-86
2022/04/08 17:24:02;;;;;;;4.13;2.00;;;;;;;9.97;28.41;98585.34;10353862;28;20229;-86
2022/04/08 17:29:04;;;;;;;4.63;1.53;;;;;;;10.21;27.30;98597.31;10357303;28;20257;-86
2022/04/08 17:34:08;;;;;;;3.67;1.87;;;;;;;10.12;28.63;98591.13;10326440;28;20595;-83
2022/04/08 17:39:11;;;;;;;4.87;1.83;;;;;;;9.46;28.74;98595.59;10333348;28;20273;-82
2022/04/08 17:44:13;;;;;;;4.20;1.93;;;;;;;9.55;29.06;98602.59;10333360;28;20233;-83
2022/04/08 17:49:16;;;;;;;4.63;1.87;;;;;;;9.65;29.13;98596.28;10335587;28;20296;-83
2022/04/08 17:54:18;;;;;;;5.27;3.00;;;;;;;10.51;29.21;98589.53;10347741;28;20241;-84
2022/04/08 17:59:21;;;;;;;8.27;4.00;;;;;;;11.09;27.91;98588.75;10310376;28;20230;-83
2022/04/08 18:04:24;;;;;;;8.13;3.70;;;;;;;10.79;27.81;98598.25;10330321;28;20245;-84
2022/04/08 18:09:26;;;;;;;5.60;2.97;;;;;;;10.90;28.90;98598.31;10315736;28;20646;-84
2022/04/08 18:14:28;;;;;;;6.87;2.53;;;;;;;11.68;27.71;98597.97;10326975;28;20248;-85
2022/04/08 18:19:30;;;;;;;5.73;3.33;;;;;;;10.01;29.58;98616.44;10329892;28;20253;-85
2022/04/08 18:24:33;;;;;;;10.53;5.53;;;;;;;11.56;27.38;98598.34;10336772;28;20249;-85
2022/04/08 18:29:35;;;;;;;12.73;7.27;;;;;;;11.03;28.04;98601.63;10324950;28;20397;-84
2022/04/08 18:34:58;;;;;;;14.27;7.83;;;;;;;11.32;28.03;98608.31;10324861;28;20222;-84
2022/04/08 18:40:02;;;;;;;8.97;5.60;;;;;;;10.31;30.04;98619.19;10332367;28;20241;-85
2022/04/08 18:45:05;;;;;;;4.97;3.83;;;;;;;11.02;29.00;98609.31;10343449;28;20237;-84
2022/04/08 18:50:08;;;;;;;8.90;3.50;;;;;;;10.98;29.18;98604.84;10351567;28;20253;-83
2022/04/08 18:55:14;;;;;;;4.40;3.73;;;;;;;11.23;29.27;98616.34;10327438;28;20300;-84
2022/04/08 19:00:16;;;;;;;6.37;4.20;;;;;;;11.13;29.47;98609.41;10341856;28;20229;-83
2022/04/08 19:05:19;;;;;;;6.93;4.57;;;;;;;10.75;30.28;98614.34;10311276;28;20229;-84
2022/04/08 19:10:25;;;;;;;6.67;4.10;;;;;;;10.95;29.83;98622.59;10329546;28;20317;-83
2022/04/08 19:15:28;;;;;;;6.13;4.27;;;;;;;9.67;31.01;98632.59;10326954;28;20253;-83
2022/04/08 19:20:30;;;;;;;6.33;3.23;;;;;;;8.48;34.08;98645.22;10338288;28;20315;-84
2022/04/08 19:25:32;;;;;;;4.83;2.10;;;;;;;8.63;34.01;98664.00;10325397;28;20705;-82
2022/04/08 19:30:38;;;;;;;2.07;1.80;;;;;;;10.06;31.92;98666.94;10318371;28;20261;-84
2022/04/08 19:35:40;;;;;;;4.00;1.53;;;;;;;9.19;33.49;98674.56;10317708;28;20272;-84
2022/04/08 19:40:42;;;;;;;3.60;1.10;;;;;;;9.94;31.48;98673.66;10340140;28;20280;-82
2022/04/08 19:45:45;;;;;;;4.70;1.60;;;;;;;9.62;32.23;98683.69;10322724;28;20614;-84
2022/04/08 19:50:47;;;;;;;3.53;0.80;;;;;;;9.20;32.24;98684.66;10342244;28;20296;-83
2022/04/08 19:55:49;;;;;;;3.23;0.77;;;;;;;8.47;33.21;98691.47;10310571;28;20269;-83
2022/04/08 20:00:51;;;;;;;3.30;0.80;;;;;;;9.95;31.37;98700.69;10305680;28;20293;-84
2022/04/08 20:05:54;;;;;;;3.90;0.77;;;;;;;8.68;32.90;98710.75;10340947;28;20578;-82
2022/04/08 20:10:58;;;;;;;1.40;0.53;;;;;;;8.71;33.52;98709.22;10307871;28;20965;-82
2022/04/08 20:16:00;;;;;;;4.47;0.70;;;;;;;8.78;33.38;98710.16;10325411;28;20253;-82
2022/04/08 20:21:07;;;;;;;4.33;0.80;;;;;;;8.90;33.32;98712.78;10339905;28;20261;-83
2022/04/08 20:26:10;;;;;;;3.27;0.80;;;;;;;8.84;33.96;98721.91;10322862;28;20245;-83
2022/04/08 20:31:12;;;;;;;3.53;0.70;;;;;;;8.70;33.41;98725.28;10326952;28;20253;-82
2022/04/08 20:36:14;;;;;;;3.33;0.87;;;;;;;8.51;33.89;98740.22;10323854;28;20233;-81
2022/04/08 20:41:17;;;;;;;7.10;1.67;;;;;;;8.23;34.21;98742.47;10321903;28;20269;-82
2022/04/08 20:46:19;;;;;;;3.03;0.67;;;;;;;8.19;34.62;98747.22;10340629;28;20241;-82
2022/04/08 20:51:22;;;;;;;3.97;0.80;;;;;;;8.37;34.05;98745.59;10306576;28;20276;-83
2022/04/08 20:56:24;;;;;;;4.93;0.50;;;;;;;7.47;34.92;98744.81;10327964;28;20273;-83
2022/04/08 21:01:28;;;;;;;2.57;0.80;;;;;;;7.50;34.33;98740.44;10312371;28;20242;-83
2022/04/08 21:06:31;;;;;;;4.77;0.63;;;;;;;9.03;32.61;98747.22;10320547;28;20304;-83
2022/04/08 21:11:33;;;;;;;3.20;0.40;;;;;;;7.87;33.55;98769.88;10322527;28;20257;-84
2022/04/08 21:16:35;;;;;;;6.13;0.90;;;;;;;7.12;34.83;98791.72;10345785;28;20253;-83
2022/04/08 21:21:38;;;;;;;3.93;0.70;;;;;;;7.73;34.46;98789.25;10307258;28;20265;-83
2022/04/08 21:26:40;;;;;;;4.80;0.60;;;;;;;8.23;33.27;98781.88;10312965;28;20237;-84
2022/04/08 21:31:43;;;;;;;5.27;0.80;;;;;;;7.52;34.77;98794.31;10331050;28;20253;-81
2022/04/08 21:36:48;;;;;;;2.47;0.40;;;;;;;7.63;34.85;98808.66;10314424;28;20234;-82
2022/04/08 21:41:50;;;;;;;3.13;0.80;;;;;;;6.85;35.78;98815.91;10328937;28;20564;-83
2022/04/08 21:46:53;;;;;;;1.97;0.40;;;;;;;8.47;34.05;98823.81;10344621;28;20237;-82
2022/04/08 21:51:56;;;;;;;3.07;0.57;;;;;;;7.79;34.37;98838.41;10326154;28;20246;-82
2022/04/08 21:56:58;;;;;;;4.27;0.60;;;;;;;8.57;33.66;98864.66;10317416;28;20233;-81
2022/04/08 22:02:01;;;;;;;3.17;0.57;;;;;;;7.76;34.82;98877.69;10315339;28;20225;-81
2022/04/08 22:07:04;;;;;;;5.23;0.70;;;;;;;7.81;35.78;98883.88;10332883;28;20265;-82
2022/04/08 22:12:06;;;;;;;8.83;1.13;;;;;;;8.05;35.08;98887.63;10332021;28;20289;-81
2022/04/08 22:17:08;;;;;;;4.47;0.60;;;;;;;8.29;34.96;98896.66;10328680;28;20814;-81
2022/04/08 22:22:12;;;;;;;4.67;0.80;;;;;;;8.67;33.83;98912.75;10344748;28;20319;-81
2022/04/08 22:27:14;;;;;;;4.60;0.70;;;;;;;8.61;33.92;98919.91;10327840;28;20257;-81
2022/04/08 22:32:16;;;;;;;4.23;0.73;;;;;;;9.37;32.60;98925.88;10326690;28;20319;-82
2022/04/08 22:37:18;;;;;;;6.57;0.73;;;;;;;9.20;32.75;98935.63;10331673;28;20284;-81
2022/04/08 22:42:20;;;;;;;3.03;1.07;;;;;;;7.98;35.08;98952.22;10331668;28;20225;-82
2022/04/08 22:47:24;;;;;;;5.20;0.80;;;;;;;8.29;34.66;98958.59;10330893;28;20230;-82
2022/04/08 22:52:26;;;;;;;3.43;1.00;;;;;;;8.45;34.70;98961.38;10346284;28;20658;-82
2022/04/08 22:57:28;;;;;;;6.07;0.93;;;;;;;8.07;35.32;98964.09;10326800;28;20268;-81
2022/04/08 23:02:32;;;;;;;3.57;0.60;;;;;;;7.63;36.12;98980.22;10330920;28;20229;-81
2022/04/08 23:07:45;;;;;;;7.53;1.20;;;;;;;8.16;34.99;98987.22;10310899;28;20234;-81
2022/04/08 23:12:47;;;;;;;4.27;0.80;;;;;;;7.87;35.27;98997.78;10339790;28;20261;-81
2022/04/08 23:17:49;;;;;;;4.80;0.70;;;;;;;7.82;35.99;99006.50;10343885;28;20261;-81
2022/04/08 23:22:51;;;;;;;5.77;0.70;;;;;;;7.27;36.84;99018.59;10324978;28;20369;-80
2022/04/08 23:27:54;;;;;;;8.27;1.07;;;;;;;7.92;37.27;99022.00;10342389;28;20288;-81
2022/04/08 23:32:56;;;;;;;7.23;1.40;;;;;;;6.65;38.76;99035.97;10305318;28;20335;-81
2022/04/08 23:37:58;;;;;;;8.77;1.30;;;;;;;7.08;37.44;99036.16;10329215;28;20249;-81